createdAt,value
2024-02-15T00:01:07.394Z,3.35
2024-02-15T00:03:34.977Z,3.33
2024-02-15T00:06:01.750Z,3.33
2024-02-15T00:08:30.682Z,4.35
2024-02-15T00:10:57.354Z,3.20
2024-02-15T00:13:24.046Z,2.60
2024-02-15T00:15:51.405Z,3.05
2024-02-15T00:18:18.470Z,3.20
2024-02-15T00:20:45.382Z,3.30
2024-02-15T00:23:12.414Z,2.97
2024-02-15T00:25:39.431Z,2.60
2024-02-15T00:28:06.376Z,3.03
2024-02-15T00:30:33.130Z,2.60
2024-02-15T00:32:59.800Z,2.92
2024-02-15T00:35:28.966Z,3.08
2024-02-15T00:37:55.893Z,3.45
2024-02-15T00:40:22.530Z,3.00
2024-02-15T00:42:49.148Z,2.70
2024-02-15T00:45:15.955Z,3.28
2024-02-15T00:47:43.578Z,3.28
2024-02-15T00:50:11.279Z,2.95
2024-02-15T00:52:38.068Z,4.32
2024-02-15T00:55:04.987Z,3.42
2024-02-15T00:57:31.670Z,3.17
2024-02-15T00:59:58.374Z,3.17
2024-02-15T01:02:25.087Z,3.10
2024-02-15T01:04:54.623Z,3.22
2024-02-15T01:07:21.304Z,3.00
2024-02-15T01:09:47.974Z,3.20
2024-02-15T01:12:14.755Z,3.20
2024-02-15T01:14:41.743Z,3.25
2024-02-15T01:17:08.763Z,2.90
2024-02-15T01:19:35.936Z,3.30
2024-02-15T01:22:03.794Z,3.10
2024-02-15T01:24:31.472Z,2.90
2024-02-15T01:26:58.104Z,3.13
2024-02-15T01:29:26.778Z,2.85
2024-02-15T01:31:53.751Z,2.97
2024-02-15T01:34:20.763Z,2.85
2024-02-15T01:36:49.597Z,3.00
2024-02-15T01:39:16.273Z,2.60
2024-02-15T01:41:49.358Z,2.13
2024-02-15T01:44:16.059Z,2.58
2024-02-15T01:46:42.834Z,2.60
2024-02-15T01:49:09.946Z,2.30
2024-02-15T01:51:38.272Z,2.75
2024-02-15T01:54:05.835Z,2.85
2024-02-15T01:56:32.859Z,2.55
2024-02-15T01:59:00.831Z,2.50
2024-02-15T02:01:27.724Z,2.50
2024-02-15T02:03:54.462Z,2.30
2024-02-15T02:06:21.208Z,2.25
2024-02-15T02:08:47.895Z,2.22
2024-02-15T02:11:14.888Z,2.50
2024-02-15T02:13:41.714Z,2.25
2024-02-15T02:16:29.032Z,2.40
2024-02-15T02:18:58.206Z,2.70
2024-02-15T02:21:29.304Z,2.10
2024-02-15T02:24:02.034Z,2.45
2024-02-15T02:26:29.210Z,2.20
2024-02-15T02:28:55.869Z,2.30
2024-02-15T02:31:25.412Z,2.65
2024-02-15T02:33:54.453Z,2.28
2024-02-15T02:36:21.534Z,2.50
2024-02-15T02:38:51.151Z,2.70
2024-02-15T02:41:20.502Z,2.42
2024-02-15T02:43:47.208Z,2.45
2024-02-15T02:46:14.205Z,3.20
2024-02-15T02:48:41.240Z,2.80
2024-02-15T02:51:09.036Z,3.00
2024-02-15T02:53:35.874Z,2.45
2024-02-15T02:56:03.321Z,3.13
2024-02-15T02:58:30.052Z,2.92
2024-02-15T03:00:57.805Z,2.60
2024-02-15T03:03:25.294Z,2.80
2024-02-15T03:05:52.039Z,3.20
2024-02-15T03:08:18.828Z,3.25
2024-02-15T03:10:45.449Z,3.10
2024-02-15T03:13:13.110Z,3.40
2024-02-15T03:15:39.929Z,3.20
2024-02-15T03:18:08.410Z,3.25
2024-02-15T03:20:38.606Z,3.50
2024-02-15T03:23:05.338Z,3.03
2024-02-15T03:25:32.135Z,3.50
2024-02-15T03:28:04.449Z,3.53
2024-02-15T03:30:35.203Z,3.60
2024-02-15T03:33:06.913Z,3.97
2024-02-15T03:35:34.309Z,3.92
2024-02-15T03:38:02.113Z,3.90
2024-02-15T03:40:29.601Z,4.20
2024-02-15T03:42:56.958Z,4.07
2024-02-15T03:45:26.539Z,4.47
2024-02-15T03:47:54.376Z,4.40
2024-02-15T03:50:22.856Z,5.03
2024-02-15T03:52:51.346Z,4.70
2024-02-15T03:55:18.176Z,4.90
2024-02-15T03:57:46.205Z,5.13
2024-02-15T04:00:15.571Z,5.00
2024-02-15T04:02:42.921Z,5.10
2024-02-15T04:05:11.495Z,5.55
2024-02-15T04:07:38.197Z,4.80
2024-02-15T04:10:06.245Z,6.05
2024-02-15T04:12:33.468Z,5.00
2024-02-15T04:15:08.210Z,5.03
2024-02-15T04:17:36.694Z,5.85
2024-02-15T04:20:05.573Z,5.53
2024-02-15T04:22:38.711Z,6.13
2024-02-15T04:25:18.025Z,5.80
2024-02-15T04:27:50.652Z,5.07
2024-02-15T04:30:18.204Z,5.82
2024-02-15T04:32:45.995Z,5.47
2024-02-15T04:35:14.777Z,5.68
2024-02-15T04:37:42.118Z,6.13
2024-02-15T04:40:11.990Z,6.15
2024-02-15T04:42:41.615Z,5.40
2024-02-15T04:45:10.035Z,5.75
2024-02-15T04:47:36.889Z,5.80
2024-02-15T04:50:06.940Z,5.75
2024-02-15T04:52:34.086Z,6.32
2024-02-15T04:55:00.679Z,6.28
2024-02-15T04:57:29.330Z,6.13
2024-02-15T04:59:56.411Z,6.43
2024-02-15T05:02:25.636Z,6.00
2024-02-15T05:04:57.756Z,5.90
2024-02-15T05:07:24.835Z,6.63
2024-02-15T05:09:53.841Z,6.55
2024-02-15T05:12:27.139Z,5.70
2024-02-15T05:14:54.572Z,6.43
2024-02-15T05:17:23.105Z,6.63
2024-02-15T05:19:51.325Z,6.13
2024-02-15T05:22:19.790Z,5.82
2024-02-15T05:24:46.697Z,5.75
2024-02-15T05:27:14.004Z,6.03
2024-02-15T05:29:42.927Z,6.55
2024-02-15T05:32:10.473Z,6.30
2024-02-15T05:34:41.175Z,5.40
2024-02-15T05:37:08.306Z,5.75
2024-02-15T05:39:35.241Z,6.78
2024-02-15T05:42:02.332Z,5.35
2024-02-15T05:44:29.202Z,5.28
2024-02-15T05:46:55.869Z,6.28
2024-02-15T05:49:25.007Z,5.72
2024-02-15T05:51:52.546Z,4.68
2024-02-15T05:54:20.051Z,4.60
2024-02-15T05:56:52.837Z,5.50
2024-02-15T05:59:21.588Z,5.13
2024-02-15T06:01:51.381Z,5.03
2024-02-15T06:04:18.383Z,4.38
2024-02-15T06:06:49.888Z,5.35
2024-02-15T06:09:16.995Z,5.15
2024-02-15T06:11:45.598Z,4.63
2024-02-15T06:14:12.285Z,5.00
2024-02-15T06:16:45.735Z,4.70
2024-02-15T06:19:12.569Z,4.65
2024-02-15T06:21:39.342Z,4.25
2024-02-15T06:24:06.050Z,4.25
2024-02-15T06:26:35.056Z,4.80
2024-02-15T06:29:20.497Z,4.13
2024-02-15T06:32:05.786Z,4.50
2024-02-15T06:34:51.259Z,4.15
2024-02-15T06:37:55.802Z,4.03
2024-02-15T06:40:22.945Z,4.07
2024-02-15T06:42:50.002Z,4.15
2024-02-15T06:45:17.766Z,4.32
2024-02-15T06:47:45.302Z,4.10
2024-02-15T06:50:15.969Z,4.10
2024-02-15T06:52:42.866Z,4.15
2024-02-15T06:55:13.427Z,4.65
2024-02-15T06:57:42.919Z,4.10
2024-02-15T07:02:37.821Z,4.18
2024-02-15T07:05:05.167Z,4.80
2024-02-15T07:07:32.908Z,4.22
2024-02-15T07:09:59.610Z,4.13
2024-02-15T07:12:26.478Z,3.85
2024-02-15T07:14:53.711Z,4.00
2024-02-15T07:17:20.816Z,3.47
2024-02-15T07:19:50.542Z,3.50
2024-02-15T07:22:17.878Z,3.70
2024-02-15T07:24:44.534Z,4.18
2024-02-15T07:27:11.388Z,5.07
2024-02-15T07:29:38.920Z,4.60
2024-02-15T07:32:07.320Z,4.35
2024-02-15T07:34:34.262Z,4.70
2024-02-15T07:37:03.445Z,5.03
2024-02-15T07:39:30.653Z,4.97
2024-02-15T07:41:59.504Z,4.43
2024-02-15T07:44:26.589Z,5.35
2024-02-15T07:46:53.338Z,4.38
2024-02-15T07:49:20.373Z,4.35
2024-02-15T07:51:53.884Z,4.07
2024-02-15T07:54:24.496Z,4.35
2024-02-15T07:56:51.324Z,4.38
2024-02-15T07:59:18.035Z,4.50
2024-02-15T08:01:47.150Z,4.03
2024-02-15T08:04:16.131Z,3.97
2024-02-15T08:06:45.399Z,3.55
2024-02-15T08:09:15.512Z,3.80
2024-02-15T08:11:42.489Z,5.50
2024-02-15T08:14:14.083Z,4.10
2024-02-15T08:16:42.470Z,4.18
2024-02-15T08:19:09.576Z,3.92
2024-02-15T08:21:39.954Z,4.85
2024-02-15T08:24:07.406Z,4.32
2024-02-15T08:26:36.578Z,4.25
2024-02-15T08:29:07.435Z,3.67
2024-02-15T08:31:35.129Z,3.75
2024-02-15T08:34:03.222Z,3.20
2024-02-15T08:36:31.941Z,3.17
2024-02-15T08:38:58.793Z,3.53
2024-02-15T08:41:28.532Z,2.80
2024-02-15T08:43:57.876Z,3.60
2024-02-15T08:48:53.242Z,3.75
2024-02-15T08:51:24.835Z,3.30
2024-02-15T08:53:52.722Z,3.15
2024-02-15T08:56:19.627Z,2.97
2024-02-15T08:58:46.370Z,2.88
2024-02-15T09:01:14.613Z,2.80
2024-02-15T09:03:41.844Z,3.47
2024-02-15T09:06:08.910Z,2.80
2024-02-15T09:08:35.899Z,3.05
2024-02-15T09:11:04.085Z,2.72
2024-02-15T09:13:33.533Z,2.70
2024-02-15T09:16:00.310Z,3.23
2024-02-15T09:18:27.098Z,2.50
2024-02-15T09:20:57.097Z,3.28
2024-02-15T09:23:24.913Z,2.50
2024-02-15T09:25:54.499Z,2.88
2024-02-15T09:30:52.915Z,2.88
2024-02-15T09:33:21.527Z,2.47
2024-02-15T09:35:48.502Z,2.75
2024-02-15T09:38:17.824Z,2.50
2024-02-15T09:43:14.456Z,2.60
2024-02-15T09:45:41.348Z,2.45
2024-02-15T09:48:11.260Z,2.63
2024-02-15T09:50:41.418Z,2.55
2024-02-15T09:53:09.748Z,2.35
2024-02-15T09:55:37.066Z,2.13
2024-02-15T09:58:05.895Z,2.03
2024-02-15T10:00:33.051Z,2.20
2024-02-15T10:03:02.661Z,2.20
2024-02-15T10:05:29.725Z,2.15
2024-02-15T10:07:56.397Z,2.30
2024-02-15T10:10:24.834Z,2.58
2024-02-15T10:12:53.098Z,2.60
2024-02-15T10:15:34.260Z,2.28
2024-02-15T10:18:03.606Z,2.47
2024-02-15T10:20:30.883Z,2.38
2024-02-15T10:23:00.597Z,2.83
2024-02-15T10:25:30.866Z,2.30
2024-02-15T10:28:08.188Z,2.30
2024-02-15T10:30:47.063Z,2.40
2024-02-15T10:33:26.962Z,2.60
2024-02-15T10:36:12.955Z,2.50
2024-02-15T10:38:40.085Z,2.55
2024-02-15T10:41:09.813Z,2.13
2024-02-15T10:43:41.186Z,2.00
2024-02-15T10:46:11.235Z,2.90
2024-02-15T10:48:39.562Z,3.13
2024-02-15T10:51:11.655Z,2.60
2024-02-15T10:53:46.746Z,2.53
2024-02-15T10:56:23.899Z,2.83
2024-02-15T10:59:09.982Z,2.97
2024-02-15T11:01:41.875Z,2.63
2024-02-15T11:04:12.826Z,2.67
2024-02-15T11:06:44.743Z,2.75
2024-02-15T11:09:12.742Z,3.40
2024-02-15T11:11:41.693Z,3.40
2024-02-15T11:14:28.200Z,3.28
2024-02-15T11:16:54.947Z,2.88
2024-02-15T11:19:37.001Z,3.00
2024-02-15T11:22:15.782Z,3.10
2024-02-15T11:24:50.844Z,3.10
2024-02-15T11:27:31.153Z,2.90
2024-02-15T11:30:11.484Z,3.00
2024-02-15T11:32:54.475Z,2.95
2024-02-15T11:35:26.047Z,2.90
2024-02-15T11:37:54.577Z,2.80
2024-02-15T11:40:25.129Z,2.30
2024-02-15T11:42:59.725Z,2.60
2024-02-15T11:45:27.700Z,3.08
2024-02-15T11:47:57.283Z,2.83
2024-02-15T11:50:24.349Z,2.25
2024-02-15T11:52:53.122Z,2.50
2024-02-15T11:55:22.189Z,2.60
2024-02-15T11:58:10.087Z,2.70
2024-02-15T12:00:57.441Z,2.90
2024-02-15T12:03:52.513Z,2.80
2024-02-15T12:06:47.206Z,2.70
2024-02-15T12:09:37.588Z,2.53
2024-02-15T12:12:23.403Z,2.20
2024-02-15T12:15:08.869Z,2.33
2024-02-15T12:17:54.690Z,2.30
2024-02-15T12:20:26.473Z,2.53
2024-02-15T12:22:54.534Z,2.65
2024-02-15T12:25:25.761Z,2.30
2024-02-15T12:28:01.400Z,2.33
2024-02-15T12:30:34.643Z,2.33
2024-02-15T12:33:16.516Z,2.03
2024-02-15T12:35:44.136Z,1.80
2024-02-15T12:38:16.878Z,2.03
2024-02-15T12:40:48.778Z,2.00
2024-02-15T12:43:16.744Z,2.15
2024-02-15T12:45:43.778Z,2.20
2024-02-15T12:48:12.349Z,2.13
2024-02-15T12:50:39.648Z,2.13
2024-02-15T12:53:07.609Z,1.77
2024-02-15T12:55:36.445Z,2.17
2024-02-15T12:58:05.299Z,2.10
2024-02-15T13:00:34.924Z,2.10
2024-02-15T13:03:05.149Z,1.70
2024-02-15T13:05:33.294Z,2.13
2024-02-15T13:08:00.445Z,1.98
2024-02-15T13:10:27.281Z,2.25
2024-02-15T13:12:54.879Z,2.10
2024-02-15T13:15:23.020Z,2.05
2024-02-15T13:17:50.353Z,2.30
2024-02-15T13:20:17.358Z,1.90
2024-02-15T13:22:49.034Z,2.25
2024-02-15T13:25:17.941Z,2.30
2024-02-15T13:27:45.024Z,2.10
2024-02-15T13:30:12.384Z,2.05
2024-02-15T13:32:42.160Z,2.00
2024-02-15T13:35:19.538Z,2.45
2024-02-15T13:37:51.128Z,2.22
2024-02-15T13:40:18.023Z,2.40
2024-02-15T13:42:54.743Z,1.92
2024-02-15T13:45:25.287Z,2.03
2024-02-15T13:47:55.100Z,1.83
2024-02-15T13:50:24.648Z,1.67
2024-02-15T13:52:51.711Z,1.80
2024-02-15T13:55:20.299Z,1.70
2024-02-15T13:57:48.632Z,2.17
2024-02-15T14:00:30.910Z,1.80
2024-02-15T14:02:59.897Z,1.98
2024-02-15T14:05:30.433Z,2.03
2024-02-15T14:07:59.134Z,1.67
2024-02-15T14:10:27.937Z,1.70
2024-02-15T14:13:09.183Z,2.20
2024-02-15T14:15:40.326Z,1.70
2024-02-15T14:18:12.841Z,2.05
2024-02-15T14:20:40.234Z,1.88
2024-02-15T14:23:07.483Z,1.92
2024-02-15T14:25:34.994Z,1.85
2024-02-15T14:28:04.119Z,2.20
2024-02-15T14:30:49.759Z,2.38
2024-02-15T14:35:48.287Z,1.85
2024-02-15T14:38:16.943Z,2.25
2024-02-15T14:40:52.814Z,2.00
2024-02-15T14:43:22.309Z,1.73
2024-02-15T14:45:49.823Z,1.92
2024-02-15T14:48:18.918Z,1.80
2024-02-15T14:50:45.914Z,1.80
2024-02-15T14:53:14.332Z,2.38
2024-02-15T14:55:41.273Z,2.47
2024-02-15T14:58:14.374Z,2.10
2024-02-15T15:00:43.773Z,1.92
2024-02-15T15:03:13.169Z,2.10
2024-02-15T15:05:59.127Z,1.95
2024-02-15T15:08:44.835Z,1.67
2024-02-15T15:11:30.334Z,1.60
2024-02-15T15:13:57.126Z,1.70
2024-02-15T15:16:26.354Z,1.80
2024-02-15T15:18:56.285Z,1.42
2024-02-15T15:21:24.991Z,1.70
2024-02-15T15:23:53.310Z,1.90
2024-02-15T15:26:21.659Z,1.70
2024-02-15T15:28:52.262Z,2.13
2024-02-15T15:31:21.575Z,1.88
2024-02-15T15:33:50.744Z,1.80
2024-02-15T15:38:47.950Z,1.88
2024-02-15T15:41:14.730Z,1.90
2024-02-15T15:43:41.513Z,1.83
2024-02-15T15:46:16.857Z,1.65
2024-02-15T15:48:47.186Z,1.30
2024-02-15T15:51:15.881Z,1.70
2024-02-15T15:53:43.750Z,1.92
2024-02-15T15:56:11.161Z,1.88
2024-02-15T15:58:37.920Z,2.03
2024-02-15T16:01:05.659Z,2.08
2024-02-15T16:03:33.212Z,1.83
2024-02-15T16:06:00.620Z,1.80
2024-02-15T16:08:28.133Z,1.98
2024-02-15T16:10:55.428Z,1.90
2024-02-15T16:13:23.346Z,2.15
2024-02-15T16:15:55.394Z,1.88
2024-02-15T16:18:22.404Z,1.70
2024-02-15T16:20:51.886Z,1.67
2024-02-15T16:23:20.459Z,1.73
2024-02-15T16:25:47.138Z,1.88
2024-02-15T16:28:13.850Z,2.67
2024-02-15T16:30:40.660Z,2.03
2024-02-15T16:33:07.441Z,2.03
2024-02-15T16:35:37.312Z,1.73
2024-02-15T16:38:06.165Z,1.70
2024-02-15T16:40:32.886Z,1.98
2024-02-15T16:42:59.540Z,1.90
2024-02-15T16:45:26.499Z,2.50
2024-02-15T16:47:57.981Z,1.77
2024-02-15T16:50:25.629Z,1.95
2024-02-15T16:52:52.978Z,1.83
2024-02-15T16:55:20.716Z,1.90
2024-02-15T16:57:47.882Z,1.80
2024-02-15T17:00:19.160Z,2.08
2024-02-15T17:02:47.316Z,1.90
2024-02-15T17:05:14.885Z,2.22
2024-02-15T17:07:41.820Z,1.80
2024-02-15T17:10:10.115Z,1.73
2024-02-15T17:12:37.649Z,1.93
2024-02-15T17:15:08.874Z,1.98
2024-02-15T17:17:37.914Z,2.00
2024-02-15T17:20:15.362Z,2.28
2024-02-15T17:22:44.056Z,2.17
2024-02-15T17:25:13.714Z,2.28
2024-02-15T17:27:40.862Z,2.58
2024-02-15T17:30:10.871Z,2.20
2024-02-15T17:32:38.229Z,2.75
2024-02-15T17:35:06.049Z,2.20
2024-02-15T17:37:32.779Z,2.40
2024-02-15T17:39:59.496Z,2.40
2024-02-15T17:42:26.124Z,2.00
2024-02-15T17:44:52.912Z,2.40
2024-02-15T17:47:19.629Z,2.10
2024-02-15T17:49:46.555Z,2.10
2024-02-15T17:52:13.285Z,1.98
2024-02-15T17:54:39.942Z,2.20
2024-02-15T17:57:06.739Z,2.63
2024-02-15T17:59:33.475Z,2.50
2024-02-15T18:02:00.733Z,2.45
2024-02-15T18:04:27.647Z,2.40
2024-02-15T18:06:54.621Z,2.83
2024-02-15T18:09:24.727Z,2.83
2024-02-15T18:11:51.568Z,2.40
2024-02-15T18:14:18.392Z,3.80
2024-02-15T18:16:50.050Z,4.05
2024-02-15T18:19:16.958Z,3.05
2024-02-15T18:21:43.782Z,3.22
2024-02-15T18:24:12.872Z,3.20
2024-02-15T18:26:39.725Z,3.78
2024-02-15T18:29:06.886Z,4.05
2024-02-15T18:31:36.624Z,3.22
2024-02-15T18:34:08.085Z,3.03
2024-02-15T18:36:35.113Z,3.33
2024-02-15T18:39:03.026Z,3.42
2024-02-15T18:41:29.885Z,4.22
2024-02-15T18:43:56.571Z,2.88
2024-02-15T18:46:23.254Z,2.92
2024-02-15T18:48:50.251Z,2.58
2024-02-15T18:51:18.277Z,3.22
2024-02-15T18:53:45.236Z,3.25
2024-02-15T18:56:18.158Z,3.30
2024-02-15T18:58:45.810Z,3.72
2024-02-15T19:01:14.172Z,2.90
2024-02-15T19:03:43.867Z,3.00
2024-02-15T19:06:10.791Z,4.90
2024-02-15T19:08:41.458Z,2.47
2024-02-15T19:11:09.422Z,3.30
2024-02-15T19:13:36.190Z,4.57
2024-02-15T19:16:03.087Z,9.50
2024-02-15T19:18:30.068Z,8.07
2024-02-15T19:20:57.271Z,7.68
2024-02-15T19:23:25.006Z,4.90
2024-02-15T19:25:51.970Z,4.18
2024-02-15T19:28:18.914Z,4.88
2024-02-15T19:30:47.902Z,4.15
2024-02-15T19:33:15.007Z,3.92
2024-02-15T19:35:43.111Z,3.70
2024-02-15T19:38:10.006Z,3.05
2024-02-15T19:40:38.676Z,2.83
2024-02-15T19:43:06.866Z,2.20
2024-02-15T19:45:38.725Z,2.28
2024-02-15T19:48:06.644Z,2.40
2024-02-15T19:50:33.453Z,3.00
2024-02-15T19:53:00.681Z,2.08
2024-02-15T19:55:27.897Z,4.85
2024-02-15T19:57:54.815Z,3.20
2024-02-15T20:00:21.768Z,2.63
2024-02-15T20:02:49.714Z,2.25
2024-02-15T20:05:16.628Z,2.00
2024-02-15T20:07:43.435Z,2.20
2024-02-15T20:10:10.756Z,2.10
2024-02-15T20:12:37.922Z,1.85
2024-02-15T20:15:05.372Z,1.70
2024-02-15T20:17:35.866Z,1.80
2024-02-15T20:20:05.762Z,2.47
2024-02-15T20:22:32.613Z,2.35
2024-02-15T20:25:01.902Z,2.70
2024-02-15T20:27:32.930Z,2.38
2024-02-15T20:30:00.005Z,2.10
2024-02-15T20:32:27.089Z,2.08
2024-02-15T20:34:53.914Z,2.10
2024-02-15T20:37:22.106Z,1.83
2024-02-15T20:39:48.938Z,2.28
2024-02-15T20:42:17.302Z,2.22
2024-02-15T20:44:44.183Z,1.85
2024-02-15T20:47:13.145Z,1.98
2024-02-15T20:49:40.671Z,1.83
2024-02-15T20:52:09.045Z,2.45
2024-02-15T20:54:35.848Z,5.95
2024-02-15T20:57:02.660Z,4.60
2024-02-15T20:59:29.421Z,3.00
2024-02-15T21:01:56.428Z,1.92
2024-02-15T21:04:23.278Z,2.08
2024-02-15T21:06:50.666Z,2.15
2024-02-15T21:09:20.220Z,2.80
2024-02-15T21:11:47.439Z,2.65
2024-02-15T21:14:15.829Z,2.20
2024-02-15T21:16:44.424Z,1.83
2024-02-15T21:19:12.316Z,2.65
2024-02-15T21:21:43.730Z,2.85
2024-02-15T21:24:10.542Z,2.70
2024-02-15T21:26:45.600Z,2.20
2024-02-15T21:29:18.374Z,1.70
2024-02-15T21:31:45.054Z,2.50
2024-02-15T21:34:12.048Z,2.58
2024-02-15T21:36:40.015Z,2.10
2024-02-15T21:39:06.970Z,2.05
2024-02-15T21:41:36.123Z,1.55
2024-02-15T21:44:03.006Z,1.63
2024-02-15T21:46:29.862Z,1.70
2024-02-15T21:48:56.694Z,1.55
2024-02-15T21:51:24.398Z,1.40
2024-02-15T21:53:51.346Z,1.80
2024-02-15T21:56:18.048Z,1.40
2024-02-15T21:58:44.907Z,2.38
2024-02-15T22:01:11.627Z,1.42
2024-02-15T22:03:38.404Z,1.67
2024-02-15T22:06:05.581Z,1.60
2024-02-15T22:08:32.277Z,1.40
2024-02-15T22:10:59.122Z,1.48
2024-02-15T22:13:25.860Z,1.92
2024-02-15T22:15:52.517Z,1.55
2024-02-15T22:18:19.326Z,1.75
2024-02-15T22:20:46.068Z,1.75
2024-02-15T22:23:12.760Z,1.70
2024-02-15T22:25:39.936Z,1.63
2024-02-15T22:28:07.361Z,1.50
2024-02-15T22:30:34.281Z,1.90
2024-02-15T22:33:01.307Z,1.90
2024-02-15T22:35:28.256Z,1.67
2024-02-15T22:37:55.618Z,2.03
2024-02-15T22:40:22.465Z,1.65
2024-02-15T22:42:49.317Z,1.60
2024-02-15T22:45:16.049Z,1.73
2024-02-15T22:47:44.750Z,1.50
2024-02-15T22:50:12.654Z,1.75
2024-02-15T22:52:40.559Z,1.40
2024-02-15T22:55:07.828Z,1.40
2024-02-15T22:57:34.746Z,1.75
2024-02-15T23:00:01.675Z,2.00
2024-02-15T23:02:29.117Z,1.70
2024-02-15T23:04:56.111Z,1.73
2024-02-15T23:07:24.941Z,1.58
2024-02-15T23:09:51.787Z,1.80
2024-02-15T23:12:18.720Z,1.80
2024-02-15T23:14:45.739Z,1.70
2024-02-15T23:17:12.933Z,1.75
2024-02-15T23:19:40.840Z,1.83
2024-02-15T23:22:10.240Z,2.00
2024-02-15T23:24:38.800Z,2.17
2024-02-15T23:27:06.742Z,1.67
2024-02-15T23:29:33.681Z,1.67
2024-02-15T23:32:00.381Z,1.60
2024-02-15T23:34:27.130Z,1.75
2024-02-15T23:37:12.379Z,2.00
2024-02-15T23:39:57.470Z,1.90
2024-02-15T23:42:24.433Z,1.70
2024-02-15T23:44:51.185Z,1.73
2024-02-15T23:47:17.942Z,1.98
2024-02-15T23:49:44.697Z,1.67
2024-02-15T23:52:11.433Z,1.95
2024-02-15T23:54:38.835Z,2.05
2024-02-15T23:57:09.924Z,1.75
2024-02-15T23:59:36.751Z,1.92
